Time;durP1;ratioP1;P1;durP2;ratioP2;P2;SDS_P1;SDS_P2;PMS_P1;PMS_P2;Temp;Humidity;BMP_temperature;BMP_pressure;BME280_temperature;BME280_humidity;BME280_pressure;Samples;Min_cycle;Max_cycle;Signal;HPM_P1;HPM_P2
2022/12/17 13:06:40;;;;;;;;;;;17.90;57.30;;;;;;10165665;28;94149;-67
2022/12/17 13:11:43;;;;;;;;;;;17.80;57.10;;;;;;10164642;28;96239;-65
2022/12/17 13:16:45;;;;;;;;;;;17.80;57.30;;;;;;10168940;28;93750;-63
2022/12/17 13:21:47;;;;;;;;;;;17.90;59.30;;;;;;10168552;28;94617;-64
2022/12/17 13:26:48;;;;;;;;;;;18.10;58.80;;;;;;10168338;28;94463;-65
2022/12/17 13:31:55;;;;;;;;;;;18.20;59.20;;;;;;10167273;28;93513;-64
2022/12/17 13:37:09;;;;;;;;;;;18.20;59.40;;;;;;10165611;28;95038;-65
2022/12/17 13:42:21;;;;;;;;;;;18.20;60.60;;;;;;10167840;28;94475;-65
2022/12/17 13:47:25;;;;;;;;;;;18.20;64.20;;;;;;10150940;28;92876;-64
2022/12/17 13:52:27;;;;;;;;;;;18.20;64.30;;;;;;10167461;28;93482;-64
2022/12/17 13:57:30;;;;;;;;;;;18.10;63.30;;;;;;10167125;28;93338;-65
2022/12/17 14:02:33;;;;;;;;;;;18.00;63.50;;;;;;10163282;28;96887;-65
2022/12/17 14:07:37;;;;;;;;;;;17.90;64.10;;;;;;10166872;28;93695;-65
2022/12/17 14:12:39;;;;;;;;;;;17.80;64.70;;;;;;10167598;28;93617;-65
2022/12/17 14:17:45;;;;;;;;;;;17.80;65.30;;;;;;10166793;28;94570;-67
2022/12/17 14:22:53;;;;;;;;;;;17.80;66.60;;;;;;10180772;28;93513;-67
2022/12/17 14:27:56;;;;;;;;;;;17.80;66.30;;;;;;10166482;28;93333;-66
2022/12/17 14:32:58;;;;;;;;;;;17.80;67.50;;;;;;10165845;28;93418;-66
2022/12/17 14:38:00;;;;;;;;;;;17.80;67.90;;;;;;10166038;28;92743;-64
2022/12/17 14:43:02;;;;;;;;;;;17.90;68.00;;;;;;10165233;28;92774;-64
2022/12/17 14:48:05;;;;;;;;;;;17.90;68.00;;;;;;10166502;28;94508;-65
2022/12/17 14:53:24;;;;;;;;;;;17.90;68.40;;;;;;10163292;28;95798;-65
2022/12/17 14:58:26;;;;;;;;;;;17.90;68.00;;;;;;10163458;28;93216;-66
2022/12/17 15:03:30;;;;;;;;;;;17.90;67.50;;;;;;10165664;28;94564;-64
2022/12/17 15:08:38;;;;;;;;;;;18.00;67.00;;;;;;10165844;28;94475;-63
2022/12/17 15:13:40;;;;;;;;;;;18.00;66.60;;;;;;10166390;28;95730;-64
2022/12/17 15:18:42;;;;;;;;;;;17.90;66.30;;;;;;10167512;28;93420;-64
2022/12/17 15:23:44;;;;;;;;;;;17.90;66.60;;;;;;10166236;28;94559;-65
2022/12/17 15:28:46;;;;;;;;;;;17.90;67.50;;;;;;10188169;28;93670;-65
2022/12/17 15:33:48;;;;;;;;;;;17.90;67.10;;;;;;10171928;28;93559;-65
2022/12/17 15:38:50;;;;;;;;;;;17.90;66.70;;;;;;10171041;28;93624;-65
2022/12/17 15:43:51;;;;;;;;;;;17.80;66.70;;;;;;10168222;28;96472;-65
2022/12/17 15:48:53;;;;;;;;;;;17.80;66.20;;;;;;10168213;28;93816;-63
2022/12/17 15:53:55;;;;;;;;;;;17.70;67.10;;;;;;10171920;28;94482;-64
2022/12/17 15:58:57;;;;;;;;;;;17.70;66.40;;;;;;10170480;28;94231;-64
2022/12/17 16:03:59;;;;;;;;;;;17.70;65.70;;;;;;10168791;28;93596;-64
2022/12/17 16:09:00;;;;;;;;;;;17.70;64.70;;;;;;10165659;28;93371;-63
2022/12/17 16:14:02;;;;;;;;;;;17.60;63.70;;;;;;10168836;28;94352;-64
2022/12/17 16:19:04;;;;;;;;;;;17.50;62.70;;;;;;10171209;28;93746;-64
2022/12/17 16:24:05;;;;;;;;;;;17.50;62.10;;;;;;10151013;28;93600;-63
2022/12/17 16:29:07;;;;;;;;;;;17.40;61.70;;;;;;10168820;28;93543;-63
2022/12/17 16:34:09;;;;;;;;;;;17.40;62.10;;;;;;10167174;28;96759;-65
2022/12/17 16:39:16;;;;;;;;;;;17.40;61.70;;;;;;10169821;28;94448;-64
2022/12/17 16:44:17;;;;;;;;;;;17.50;62.10;;;;;;10169665;28;93569;-64
2022/12/17 16:49:21;;;;;;;;;;;17.60;64.30;;;;;;10169385;28;94479;-63
2022/12/17 16:54:24;;;;;;;;;;;18.00;65.80;;;;;;10168847;28;94743;-60
2022/12/17 16:59:27;;;;;;;;;;;18.50;65.40;;;;;;10181614;28;93958;-61
2022/12/17 17:04:29;;;;;;;;;;;18.90;64.20;;;;;;10166563;28;93284;-61
2022/12/17 17:09:30;;;;;;;;;;;18.80;61.70;;;;;;10181148;28;93161;-61
2022/12/17 17:14:32;;;;;;;;;;;18.70;61.20;;;;;;10181430;28;94557;-61
2022/12/17 17:19:34;;;;;;;;;;;18.60;61.70;;;;;;10166419;28;93279;-61
2022/12/17 17:24:35;;;;;;;;;;;18.60;61.90;;;;;;10164088;28;97013;-62
2022/12/17 17:29:37;;;;;;;;;;;18.50;62.50;;;;;;10167019;28;94687;-62
2022/12/17 17:34:39;;;;;;;;;;;18.40;62.30;;;;;;10166398;28;94523;-62
2022/12/17 17:39:41;;;;;;;;;;;18.30;62.70;;;;;;10166507;28;94464;-62
2022/12/17 17:44:42;;;;;;;;;;;18.30;62.70;;;;;;10163002;28;93427;-63
2022/12/17 17:49:45;;;;;;;;;;;18.20;62.70;;;;;;10165613;28;93518;-63
2022/12/17 17:54:48;;;;;;;;;;;18.10;63.10;;;;;;10165421;28;93968;-62
2022/12/17 17:59:50;;;;;;;;;;;18.00;63.10;;;;;;10166430;28;93700;-63
2022/12/17 18:04:51;;;;;;;;;;;17.90;63.00;;;;;;10147902;28;94471;-63
2022/12/17 18:09:53;;;;;;;;;;;17.90;62.70;;;;;;10165640;28;93579;-63
2022/12/17 18:14:55;;;;;;;;;;;17.90;62.50;;;;;;10162882;28;96892;-63
2022/12/17 18:20:17;;;;;;;;;;;17.90;62.30;;;;;;10165234;28;94131;-63
2022/12/17 18:25:18;;;;;;;;;;;17.90;62.40;;;;;;10164682;28;94564;-64
2022/12/17 18:30:20;;;;;;;;;;;18.00;62.40;;;;;;10163963;28;93584;-63
2022/12/17 18:35:22;;;;;;;;;;;18.10;62.10;;;;;;10178285;28;94787;-63
2022/12/17 18:40:23;;;;;;;;;;;18.20;61.80;;;;;;10165214;28;93970;-62
2022/12/17 18:45:37;;;;;;;;;;;18.20;61.40;;;;;;10163868;28;94732;-62
2022/12/17 18:50:38;;;;;;;;;;;18.20;61.80;;;;;;10164446;28;92997;-63
2022/12/17 18:55:40;;;;;;;;;;;18.20;61.70;;;;;;10163592;28;93488;-63
2022/12/17 19:00:42;;;;;;;;;;;18.20;61.50;;;;;;10162424;28;97796;-62
2022/12/17 19:05:47;;;;;;;;;;;18.30;61.20;;;;;;10160781;28;96327;-63
2022/12/17 19:10:54;;;;;;;;;;;18.20;60.80;;;;;;10152865;28;93230;-63
2022/12/17 19:15:56;;;;;;;;;;;18.20;61.00;;;;;;10153659;28;93541;-63
2022/12/17 19:20:58;;;;;;;;;;;18.10;61.10;;;;;;10157665;28;94255;-63
2022/12/17 19:26:11;;;;;;;;;;;18.20;61.40;;;;;;10157157;28;94134;-63
2022/12/17 19:31:13;;;;;;;;;;;18.20;61.10;;;;;;10153792;28;93532;-63
2022/12/17 19:36:16;;;;;;;;;;;18.30;60.70;;;;;;10152789;28;92674;-61
2022/12/17 19:41:18;;;;;;;;;;;18.30;60.30;;;;;;10145060;28;93405;-64
2022/12/17 19:46:20;;;;;;;;;;;18.20;60.10;;;;;;10153611;28;93585;-62
2022/12/17 19:51:23;;;;;;;;;;;18.20;60.00;;;;;;10157615;28;93747;-63
2022/12/17 19:56:26;;;;;;;;;;;18.20;60.20;;;;;;10159160;28;95841;-63
2022/12/17 20:01:29;;;;;;;;;;;18.20;60.20;;;;;;10161761;28;94540;-63
2022/12/17 20:06:32;;;;;;;;;;;18.30;60.00;;;;;;10167324;28;94537;-63
2022/12/17 20:11:34;;;;;;;;;;;18.40;59.80;;;;;;10168239;28;94506;-64
2022/12/17 20:16:37;;;;;;;;;;;18.30;59.50;;;;;;10169643;28;93863;-63
2022/12/17 20:21:40;;;;;;;;;;;18.30;59.50;;;;;;10166197;28;94571;-60
2022/12/17 20:26:42;;;;;;;;;;;18.20;59.60;;;;;;10155060;28;94497;-61
2022/12/17 20:31:48;;;;;;;;;;;18.20;59.80;;;;;;10166026;28;92741;-61
2022/12/17 20:36:51;;;;;;;;;;;18.30;59.70;;;;;;10166193;28;93570;-61
2022/12/17 20:41:52;;;;;;;;;;;18.30;59.30;;;;;;10168874;28;94622;-60
2022/12/17 20:46:54;;;;;;;;;;;18.40;59.10;;;;;;10148037;28;96851;-60
2022/12/17 20:51:56;;;;;;;;;;;18.30;58.80;;;;;;10166921;28;94430;-61
2022/12/17 20:56:57;;;;;;;;;;;18.20;58.70;;;;;;10151354;28;94132;-60
2022/12/17 21:01:59;;;;;;;;;;;18.10;58.70;;;;;;10151096;28;94433;-60
2022/12/17 21:07:01;;;;;;;;;;;18.10;58.80;;;;;;10167125;28;93450;-61
2022/12/17 21:12:03;;;;;;;;;;;18.20;58.80;;;;;;10165414;28;94628;-60
2022/12/17 21:17:05;;;;;;;;;;;18.20;58.50;;;;;;10165142;28;93928;-60
2022/12/17 21:22:07;;;;;;;;;;;18.10;58.30;;;;;;10165681;28;92669;-60
2022/12/17 21:27:10;;;;;;;;;;;18.10;58.10;;;;;;10168151;28;93826;-61
2022/12/17 21:32:15;;;;;;;;;;;18.00;58.00;;;;;;10167129;28;93426;-60
2022/12/17 21:37:17;;;;;;;;;;;17.90;57.80;;;;;;10147401;28;96693;-60
2022/12/17 21:47:39;;;;;;;;;;;17.70;57.70;;;;;;10166592;28;93680;-61
2022/12/17 21:52:40;;;;;;;;;;;17.50;57.70;;;;;;10166646;28;94468;-61
2022/12/17 21:57:44;;;;;;;;;;;17.40;57.60;;;;;;10165688;28;114822;-61
2022/12/17 22:02:46;;;;;;;;;;;17.40;57.70;;;;;;10166332;28;94626;-60
2022/12/17 22:07:48;;;;;;;;;;;17.30;57.70;;;;;;10166573;28;93621;-59
2022/12/17 22:18:13;;;;;;;;;;;17.10;57.70;;;;;;10166744;28;94505;-60
2022/12/17 22:23:15;;;;;;;;;;;17.00;57.70;;;;;;10167283;28;93567;-60
2022/12/17 22:28:16;;;;;;;;;;;17.00;57.50;;;;;;10162655;28;95861;-60
2022/12/17 22:33:18;;;;;;;;;;;16.90;57.50;;;;;;10165747;28;94550;-60
2022/12/17 22:38:40;;;;;;;;;;;16.90;57.50;;;;;;10151900;28;95566;-65
2022/12/17 22:44:02;;;;;;;;;;;16.80;57.30;;;;;;10165483;28;95626;-60
2022/12/17 22:49:23;;;;;;;;;;;16.70;57.20;;;;;;10166363;28;93330;-60
2022/12/17 22:54:25;;;;;;;;;;;16.60;57.30;;;;;;10165127;28;94500;-60
2022/12/17 22:59:27;;;;;;;;;;;16.60;57.00;;;;;;10148493;28;93292;-60
2022/12/17 23:04:29;;;;;;;;;;;16.50;56.80;;;;;;10165018;28;92741;-60
2022/12/17 23:09:31;;;;;;;;;;;16.40;56.90;;;;;;10165555;28;94657;-60
2022/12/17 23:14:33;;;;;;;;;;;16.40;57.20;;;;;;10165717;28;94424;-61
2022/12/17 23:19:34;;;;;;;;;;;16.30;57.00;;;;;;10161874;28;95770;-60
2022/12/17 23:24:36;;;;;;;;;;;16.20;57.00;;;;;;10164984;28;94618;-60
2022/12/17 23:29:37;;;;;;;;;;;16.20;57.20;;;;;;10165222;28;93430;-60
2022/12/17 23:34:39;;;;;;;;;;;16.10;57.00;;;;;;10163869;28;94202;-60
2022/12/17 23:39:41;;;;;;;;;;;16.10;57.10;;;;;;10165915;28;94565;-61
2022/12/17 23:44:43;;;;;;;;;;;16.10;57.20;;;;;;10170701;28;93939;-60
2022/12/17 23:49:45;;;;;;;;;;;16.00;57.30;;;;;;10170750;28;94731;-61
2022/12/17 23:54:46;;;;;;;;;;;16.00;57.20;;;;;;10172700;28;93884;-61
2022/12/17 23:59:48;;;;;;;;;;;16.00;57.30;;;;;;10170676;28;93559;-61
